createdAt,value
2022-09-10T00:02:12.337Z,2.97
2022-09-10T00:04:39.265Z,3.50
2022-09-10T00:07:06.153Z,3.80
2022-09-10T00:09:33.038Z,3.80
2022-09-10T00:11:59.899Z,4.57
2022-09-10T00:14:26.787Z,4.10
2022-09-10T00:16:54.829Z,4.10
2022-09-10T00:19:22.152Z,3.60
2022-09-10T00:21:50.670Z,3.83
2022-09-10T00:24:17.613Z,3.57
2022-09-10T00:26:45.667Z,3.20
2022-09-10T00:29:18.387Z,3.20
2022-09-10T00:31:45.445Z,3.70
2022-09-10T00:34:14.323Z,3.00
2022-09-10T00:36:43.902Z,4.00
2022-09-10T00:39:15.085Z,2.97
2022-09-10T00:41:44.632Z,3.47
2022-09-10T00:44:43.691Z,3.20
2022-09-10T00:47:22.367Z,3.10
2022-09-10T00:50:20.863Z,3.40
2022-09-10T00:52:49.565Z,3.27
2022-09-10T00:55:17.634Z,3.73
2022-09-10T00:57:47.661Z,3.13
2022-09-10T01:00:16.035Z,3.97
2022-09-10T01:02:43.254Z,3.10
2022-09-10T01:05:12.035Z,3.37
2022-09-10T01:07:39.897Z,3.80
2022-09-10T01:10:18.057Z,3.60
2022-09-10T01:13:03.415Z,3.50
2022-09-10T01:15:53.046Z,3.40
2022-09-10T01:19:02.351Z,3.73
2022-09-10T01:21:57.361Z,4.00
2022-09-10T01:25:00.685Z,3.27
2022-09-10T01:27:44.865Z,3.50
2022-09-10T01:30:25.056Z,3.47
2022-09-10T01:33:23.398Z,3.40
2022-09-10T01:36:01.778Z,3.23
2022-09-10T01:38:35.710Z,2.97
2022-09-10T01:41:04.572Z,3.30
2022-09-10T01:43:37.582Z,3.33
2022-09-10T01:46:21.458Z,3.40
2022-09-10T01:49:07.761Z,2.80
2022-09-10T01:51:40.394Z,3.00
2022-09-10T01:54:50.818Z,2.70
2022-09-10T01:57:52.928Z,3.30
2022-09-10T02:00:22.219Z,2.70
2022-09-10T02:03:01.691Z,3.00
2022-09-10T02:05:35.250Z,3.20
2022-09-10T02:08:13.943Z,3.73
2022-09-10T02:11:06.807Z,3.13
2022-09-10T02:13:36.830Z,3.43
2022-09-10T02:16:31.251Z,4.00
2022-09-10T02:19:00.683Z,3.40
2022-09-10T02:21:27.785Z,3.07
2022-09-10T02:24:05.966Z,3.13
2022-09-10T02:26:40.288Z,3.43
2022-09-10T02:29:08.716Z,2.83
2022-09-10T02:31:36.403Z,2.70
2022-09-10T02:34:03.580Z,3.40
2022-09-10T02:36:31.989Z,3.80
2022-09-10T02:39:00.433Z,3.00
2022-09-10T02:41:30.131Z,2.60
2022-09-10T02:43:57.551Z,3.00
2022-09-10T02:46:24.773Z,3.20
2022-09-10T02:48:55.212Z,3.13
2022-09-10T02:51:24.429Z,3.30
2022-09-10T02:53:51.823Z,3.83
2022-09-10T02:56:23.697Z,3.37
2022-09-10T02:58:51.062Z,3.03
2022-09-10T03:01:21.165Z,3.93
2022-09-10T03:03:58.162Z,4.03
2022-09-10T03:06:26.477Z,3.97
2022-09-10T03:08:57.654Z,3.20
2022-09-10T03:11:27.473Z,3.40
2022-09-10T03:13:55.785Z,2.90
2022-09-10T03:16:24.364Z,3.60
2022-09-10T03:18:52.258Z,3.50
2022-09-10T03:21:22.315Z,3.20
2022-09-10T03:23:51.245Z,3.30
2022-09-10T03:26:25.929Z,3.00
2022-09-10T03:28:54.077Z,3.43
2022-09-10T03:31:23.656Z,3.37
2022-09-10T03:33:51.449Z,3.47
2022-09-10T03:36:20.885Z,3.23
2022-09-10T03:38:49.408Z,3.13
2022-09-10T03:41:17.252Z,3.10
2022-09-10T03:43:44.970Z,2.90
2022-09-10T03:46:12.159Z,3.63
2022-09-10T03:48:43.605Z,2.70
2022-09-10T03:51:11.107Z,2.80
2022-09-10T03:53:39.239Z,4.90
2022-09-10T03:56:08.394Z,4.57
2022-09-10T03:58:35.877Z,3.43
2022-09-10T04:01:03.889Z,3.77
2022-09-10T04:03:33.367Z,3.13
2022-09-10T04:06:00.285Z,2.90
2022-09-10T04:08:27.225Z,3.03
2022-09-10T04:10:55.149Z,3.53
2022-09-10T04:13:23.048Z,3.63
2022-09-10T04:15:50.040Z,3.67
2022-09-10T04:18:17.125Z,3.00
2022-09-10T04:20:48.131Z,3.10
2022-09-10T04:23:16.430Z,3.50
2022-09-10T04:25:46.585Z,3.27
2022-09-10T04:28:13.672Z,3.30
2022-09-10T04:30:40.629Z,3.40
2022-09-10T04:33:09.469Z,3.30
2022-09-10T04:35:36.374Z,3.33
2022-09-10T04:38:07.150Z,3.73
2022-09-10T04:40:38.102Z,3.27
2022-09-10T04:43:05.031Z,3.50
2022-09-10T04:45:35.125Z,3.93
2022-09-10T04:48:06.722Z,3.43
2022-09-10T04:50:34.499Z,3.67
2022-09-10T04:53:12.256Z,3.17
2022-09-10T04:55:43.008Z,3.67
2022-09-10T04:58:10.652Z,3.90
2022-09-10T05:00:39.370Z,4.43
2022-09-10T05:03:07.187Z,3.60
2022-09-10T05:05:34.862Z,3.30
2022-09-10T05:08:08.140Z,4.27
2022-09-10T05:10:38.276Z,4.27
2022-09-10T05:13:07.264Z,4.20
2022-09-10T05:15:35.717Z,3.17
2022-09-10T05:18:04.538Z,3.53
2022-09-10T05:20:35.703Z,3.60
2022-09-10T05:23:02.616Z,4.03
2022-09-10T05:25:29.617Z,3.13
2022-09-10T05:27:58.374Z,3.60
2022-09-10T05:30:25.246Z,4.13
2022-09-10T05:32:53.271Z,3.97
2022-09-10T05:35:20.421Z,3.97
2022-09-10T05:37:48.639Z,3.03
2022-09-10T05:40:15.947Z,5.10
2022-09-10T05:42:44.234Z,5.90
2022-09-10T05:45:11.307Z,7.53
2022-09-10T05:47:38.266Z,7.93
2022-09-10T05:50:07.288Z,7.00
2022-09-10T05:52:35.127Z,7.47
2022-09-10T05:55:06.796Z,8.03
2022-09-10T05:57:33.680Z,5.60
2022-09-10T06:00:02.019Z,4.73
2022-09-10T06:02:30.546Z,4.97
2022-09-10T06:04:58.572Z,3.90
2022-09-10T06:07:28.212Z,4.00
2022-09-10T06:09:55.851Z,4.23
2022-09-10T06:12:35.410Z,4.33
2022-09-10T06:15:03.659Z,4.20
2022-09-10T06:17:30.591Z,3.80
2022-09-10T06:19:58.016Z,3.40
2022-09-10T06:22:25.075Z,4.40
2022-09-10T06:24:53.730Z,3.23
2022-09-10T06:27:23.227Z,4.00
2022-09-10T06:29:51.276Z,3.50
2022-09-10T06:32:18.259Z,3.60
2022-09-10T06:34:46.543Z,4.60
2022-09-10T06:37:13.440Z,4.13
2022-09-10T06:39:40.970Z,4.03
2022-09-10T06:42:08.131Z,5.03
2022-09-10T06:44:54.800Z,4.33
2022-09-10T06:48:25.456Z,4.47
2022-09-10T06:50:21.443Z,3.70
2022-09-10T06:52:50.220Z,4.63
2022-09-10T06:55:20.652Z,3.93
2022-09-10T06:57:47.617Z,4.70
2022-09-10T07:00:17.451Z,5.00
2022-09-10T07:02:50.452Z,4.13
2022-09-10T07:05:17.754Z,4.50
2022-09-10T07:07:46.356Z,5.03
2022-09-10T07:10:14.406Z,4.10
2022-09-10T07:12:41.913Z,4.60
2022-09-10T07:15:09.638Z,4.80
2022-09-10T07:17:37.015Z,3.90
2022-09-10T07:20:04.631Z,4.57
2022-09-10T07:22:43.712Z,4.30
2022-09-10T07:25:12.817Z,4.33
2022-09-10T07:27:57.957Z,4.50
2022-09-10T07:30:25.640Z,3.97
2022-09-10T07:32:52.804Z,4.77
2022-09-10T07:35:25.467Z,4.60
2022-09-10T07:37:54.264Z,4.80
2022-09-10T07:40:23.403Z,5.10
2022-09-10T07:42:52.450Z,4.70
2022-09-10T07:45:19.760Z,4.73
2022-09-10T07:47:48.618Z,4.80
2022-09-10T07:50:16.483Z,4.80
2022-09-10T07:52:44.475Z,4.73
2022-09-10T07:55:11.517Z,4.53
2022-09-10T07:57:40.535Z,5.23
2022-09-10T08:00:16.705Z,4.10
2022-09-10T08:02:46.976Z,4.50
2022-09-10T08:05:18.552Z,4.20
2022-09-10T08:07:46.608Z,5.00
2022-09-10T08:10:13.553Z,4.47
2022-09-10T08:12:41.975Z,3.20
2022-09-10T08:15:10.809Z,4.60
2022-09-10T08:17:40.051Z,4.13
2022-09-10T08:20:09.850Z,3.60
2022-09-10T08:22:38.633Z,3.73
2022-09-10T08:25:06.343Z,4.37
2022-09-10T08:27:35.134Z,3.97
2022-09-10T08:30:05.668Z,4.97
2022-09-10T08:32:35.834Z,4.93
2022-09-10T08:35:04.945Z,4.90
2022-09-10T08:37:33.378Z,4.77
2022-09-10T08:40:00.364Z,4.17
2022-09-10T08:42:39.946Z,4.67
2022-09-10T08:45:17.424Z,4.67
2022-09-10T08:47:57.150Z,4.17
2022-09-10T08:50:49.707Z,4.43
2022-09-10T08:53:44.232Z,4.63
2022-09-10T08:56:21.494Z,4.17
2022-09-10T08:59:00.023Z,4.40
2022-09-10T09:01:45.768Z,3.80
2022-09-10T09:04:39.651Z,4.33
2022-09-10T09:07:15.812Z,4.53
2022-09-10T09:09:51.469Z,3.60
2022-09-10T09:12:36.177Z,3.60
2022-09-10T09:15:25.560Z,3.97
2022-09-10T09:18:15.460Z,4.80
2022-09-10T09:20:52.560Z,4.43
2022-09-10T09:23:23.619Z,4.80
2022-09-10T09:26:04.689Z,4.30
2022-09-10T09:28:49.409Z,4.00
2022-09-10T09:31:26.280Z,4.53
2022-09-10T09:34:05.891Z,4.37
2022-09-10T09:36:42.433Z,4.63
2022-09-10T09:39:42.642Z,4.03
2022-09-10T09:42:24.779Z,4.07
2022-09-10T09:45:32.425Z,3.77
2022-09-10T09:47:59.785Z,5.60
2022-09-10T09:50:30.032Z,3.90
2022-09-10T09:52:57.278Z,3.70
2022-09-10T09:55:38.872Z,3.80
2022-09-10T09:58:26.833Z,2.87
2022-09-10T10:01:09.740Z,3.07
2022-09-10T10:03:58.558Z,2.60
2022-09-10T10:06:34.671Z,2.67
2022-09-10T10:09:22.927Z,2.93
2022-09-10T10:11:58.293Z,2.63
2022-09-10T10:14:41.530Z,3.07
2022-09-10T10:17:30.220Z,3.13
2022-09-10T10:20:14.400Z,3.20
2022-09-10T10:22:44.069Z,2.80
2022-09-10T10:25:38.364Z,2.87
2022-09-10T10:28:31.871Z,2.67
2022-09-10T10:31:01.084Z,3.00
2022-09-10T10:33:31.515Z,2.80
2022-09-10T10:36:19.631Z,3.17
2022-09-10T10:39:47.605Z,3.00
2022-09-10T10:42:45.767Z,2.57
2022-09-10T10:45:45.963Z,3.20
2022-09-10T10:48:33.903Z,2.57
2022-09-10T10:51:15.040Z,2.67
2022-09-10T10:54:29.509Z,2.67
2022-09-10T10:57:30.495Z,2.70
2022-09-10T11:00:12.878Z,2.63
2022-09-10T11:03:15.924Z,3.53
2022-09-10T11:05:48.302Z,3.13
2022-09-10T11:08:29.996Z,2.87
2022-09-10T11:11:13.789Z,3.63
2022-09-10T11:14:25.208Z,3.03
2022-09-10T11:17:05.628Z,2.50
2022-09-10T11:19:43.093Z,2.90
2022-09-10T11:22:22.872Z,2.80
2022-09-10T11:25:00.504Z,4.03
2022-09-10T11:27:37.648Z,3.43
2022-09-10T11:30:10.563Z,3.40
2022-09-10T11:33:05.567Z,3.43
2022-09-10T11:35:44.607Z,2.97
2022-09-10T11:38:36.812Z,3.60
2022-09-10T11:41:22.306Z,3.50
2022-09-10T11:44:15.472Z,3.40
2022-09-10T11:46:58.204Z,4.00
2022-09-10T11:49:39.336Z,3.60
2022-09-10T11:52:06.217Z,2.40
2022-09-10T11:54:35.736Z,2.90
2022-09-10T11:57:40.244Z,3.20
2022-09-10T12:00:18.394Z,3.20
2022-09-10T12:03:30.736Z,3.47
2022-09-10T12:06:22.269Z,3.07
2022-09-10T12:09:09.340Z,2.53
2022-09-10T12:12:09.076Z,2.50
2022-09-10T12:14:39.942Z,2.97
2022-09-10T12:17:29.946Z,2.30
2022-09-10T12:19:59.001Z,1.87
2022-09-10T12:22:31.769Z,2.60
2022-09-10T12:25:28.338Z,2.20
2022-09-10T12:28:01.526Z,3.07
2022-09-10T12:30:29.126Z,2.63
2022-09-10T12:33:01.870Z,2.93
2022-09-10T12:35:45.976Z,2.83
2022-09-10T12:39:09.179Z,3.10
2022-09-10T12:41:36.108Z,2.57
2022-09-10T12:44:34.407Z,2.30
2022-09-10T12:47:16.469Z,3.30
2022-09-10T12:49:49.506Z,2.30
2022-09-10T12:52:40.732Z,2.07
2022-09-10T12:55:48.910Z,3.10
2022-09-10T12:58:58.961Z,2.30
2022-09-10T13:01:46.376Z,2.20
2022-09-10T13:04:37.201Z,2.03
2022-09-10T13:07:25.118Z,1.80
2022-09-10T13:10:14.943Z,2.00
2022-09-10T13:12:45.052Z,1.97
2022-09-10T13:15:24.053Z,2.00
2022-09-10T13:17:51.406Z,2.03
2022-09-10T13:20:21.207Z,1.93
2022-09-10T13:23:10.108Z,2.13
2022-09-10T13:25:45.881Z,2.47
2022-09-10T13:28:31.335Z,2.37
2022-09-10T13:31:09.103Z,2.10
2022-09-10T13:34:14.100Z,2.20
2022-09-10T13:37:17.415Z,2.70
2022-09-10T13:40:08.851Z,3.83
2022-09-10T13:43:07.645Z,2.20
2022-09-10T13:45:42.052Z,2.30
2022-09-10T13:48:27.514Z,2.10
2022-09-10T13:51:11.162Z,1.60
2022-09-10T13:53:43.818Z,1.83
2022-09-10T13:56:21.564Z,1.90
2022-09-10T13:58:51.597Z,2.00
2022-09-10T14:01:18.610Z,2.40
2022-09-10T14:03:45.559Z,2.20
2022-09-10T14:06:18.296Z,2.50
2022-09-10T14:09:04.762Z,1.90
2022-09-10T14:11:41.304Z,2.20
2022-09-10T14:14:19.234Z,1.83
2022-09-10T14:16:52.623Z,2.03
2022-09-10T14:19:26.384Z,1.73
2022-09-10T14:21:55.719Z,1.87
2022-09-10T14:24:59.764Z,2.40
2022-09-10T14:27:30.989Z,3.00
2022-09-10T14:30:25.924Z,2.43
2022-09-10T14:32:53.219Z,2.30
2022-09-10T14:35:37.113Z,1.93
2022-09-10T14:38:26.470Z,1.93
2022-09-10T14:41:08.465Z,1.77
2022-09-10T14:43:38.976Z,2.00
2022-09-10T14:46:08.259Z,1.70
2022-09-10T14:48:39.452Z,2.27
2022-09-10T14:51:21.946Z,2.40
2022-09-10T14:53:56.984Z,1.90
2022-09-10T14:56:37.983Z,2.47
2022-09-10T14:59:36.339Z,1.77
2022-09-10T15:02:15.530Z,2.10
2022-09-10T15:04:42.453Z,2.10
2022-09-10T15:07:10.140Z,2.60
2022-09-10T15:09:37.012Z,2.20
2022-09-10T15:12:24.336Z,2.33
2022-09-10T15:14:52.088Z,2.00
2022-09-10T15:17:19.688Z,1.97
2022-09-10T15:19:47.242Z,2.60
2022-09-10T15:22:23.669Z,1.83
2022-09-10T15:25:08.987Z,2.37
2022-09-10T15:27:36.335Z,1.87
2022-09-10T15:30:03.479Z,2.17
2022-09-10T15:32:30.765Z,1.70
2022-09-10T15:34:57.646Z,1.60
2022-09-10T15:37:24.578Z,1.40
2022-09-10T15:39:51.669Z,2.10
2022-09-10T15:42:18.659Z,2.23
2022-09-10T15:44:45.532Z,1.93
2022-09-10T15:47:12.415Z,1.80
2022-09-10T15:49:39.319Z,2.00
2022-09-10T15:52:06.224Z,1.90
2022-09-10T15:54:33.895Z,2.30
2022-09-10T15:57:01.204Z,1.90
2022-09-10T15:59:28.526Z,2.20
2022-09-10T16:01:55.459Z,2.47
2022-09-10T16:04:22.947Z,3.10
2022-09-10T16:06:49.871Z,3.10
2022-09-10T16:09:16.943Z,2.77
2022-09-10T16:11:44.457Z,4.10
2022-09-10T16:14:14.679Z,3.90
2022-09-10T16:16:41.883Z,4.90
2022-09-10T16:19:12.059Z,4.43
2022-09-10T16:21:39.296Z,4.23
2022-09-10T16:24:06.962Z,4.80
2022-09-10T16:26:41.605Z,4.90
2022-09-10T16:29:15.907Z,3.00
2022-09-10T16:31:45.489Z,3.80
2022-09-10T16:34:19.047Z,3.60
2022-09-10T16:36:51.508Z,2.90
2022-09-10T16:39:19.867Z,4.50
2022-09-10T16:41:49.088Z,2.27
2022-09-10T16:44:17.779Z,2.20
2022-09-10T16:46:46.552Z,3.50
2022-09-10T16:49:15.064Z,4.40
2022-09-10T16:51:44.196Z,4.50
2022-09-10T16:54:13.538Z,4.77
2022-09-10T16:56:43.933Z,4.30
2022-09-10T16:59:15.734Z,4.60
2022-09-10T17:01:48.407Z,2.50
2022-09-10T17:04:20.646Z,2.50
2022-09-10T17:06:50.780Z,1.93
2022-09-10T17:09:17.963Z,2.13
2022-09-10T17:11:44.852Z,1.87
2022-09-10T17:14:12.368Z,1.93
2022-09-10T17:16:41.564Z,1.70
2022-09-10T17:19:23.231Z,2.30
2022-09-10T17:21:53.437Z,2.27
2022-09-10T17:24:23.401Z,2.20
2022-09-10T17:26:51.055Z,3.50
2022-09-10T17:29:22.237Z,2.30
2022-09-10T17:31:52.029Z,2.37
2022-09-10T17:34:21.341Z,2.60
2022-09-10T17:36:49.081Z,2.40
2022-09-10T17:39:16.890Z,2.60
2022-09-10T17:41:44.065Z,2.50
2022-09-10T17:44:12.148Z,2.40
2022-09-10T17:46:39.443Z,2.40
2022-09-10T17:49:06.688Z,2.27
2022-09-10T17:51:34.962Z,6.00
2022-09-10T17:54:03.270Z,4.03
2022-09-10T17:56:31.300Z,3.80
2022-09-10T17:59:01.675Z,4.23
2022-09-10T18:01:38.828Z,5.30
2022-09-10T18:04:12.660Z,5.30
2022-09-10T18:06:40.747Z,4.70
2022-09-10T18:09:08.660Z,4.40
2022-09-10T18:11:39.528Z,4.30
2022-09-10T18:14:07.209Z,5.53
2022-09-10T18:16:36.285Z,4.77
2022-09-10T18:19:13.728Z,4.40
2022-09-10T18:21:42.049Z,2.70
2022-09-10T18:24:19.022Z,1.97
2022-09-10T18:26:48.288Z,2.70
2022-09-10T18:29:27.740Z,2.50
2022-09-10T18:31:57.935Z,2.20
2022-09-10T18:34:28.603Z,2.80
2022-09-10T18:36:58.570Z,2.47
2022-09-10T18:39:27.629Z,2.40
2022-09-10T18:41:55.086Z,2.40
2022-09-10T18:44:27.205Z,2.80
2022-09-10T18:46:54.466Z,2.53
2022-09-10T18:49:24.379Z,1.90
2022-09-10T18:51:52.408Z,2.30
2022-09-10T18:54:21.760Z,2.70
2022-09-10T18:56:49.585Z,3.03
2022-09-10T18:59:20.221Z,2.60
2022-09-10T19:01:49.337Z,2.50
2022-09-10T19:04:20.128Z,2.50
2022-09-10T19:06:48.529Z,2.07
2022-09-10T19:09:19.546Z,2.73
2022-09-10T19:11:49.609Z,2.90
2022-09-10T19:14:29.866Z,2.83
2022-09-10T19:16:58.637Z,3.67
2022-09-10T19:19:31.730Z,3.17
2022-09-10T19:22:03.317Z,2.70
2022-09-10T19:24:53.362Z,2.93
2022-09-10T19:27:17.658Z,3.17
2022-09-10T19:29:47.157Z,3.80
2022-09-10T19:32:15.140Z,4.00
2022-09-10T19:34:42.691Z,3.60
2022-09-10T19:37:09.770Z,3.47
2022-09-10T19:39:36.739Z,3.67
2022-09-10T19:42:04.178Z,4.70
2022-09-10T19:44:31.047Z,4.50
2022-09-10T19:46:58.674Z,5.17
2022-09-10T19:49:25.590Z,5.07
2022-09-10T19:51:52.506Z,4.80
2022-09-10T19:54:19.422Z,5.30
2022-09-10T19:56:46.309Z,4.20
2022-09-10T19:59:14.465Z,4.27
2022-09-10T20:01:43.617Z,4.27
2022-09-10T20:04:12.624Z,4.80
2022-09-10T20:06:40.298Z,5.30
2022-09-10T20:09:09.791Z,6.10
2022-09-10T20:11:37.186Z,4.10
2022-09-10T20:14:10.729Z,3.57
2022-09-10T20:16:42.260Z,3.63
2022-09-10T20:19:11.565Z,2.60
2022-09-10T20:21:38.526Z,2.80
2022-09-10T20:24:07.285Z,2.67
2022-09-10T20:26:43.893Z,2.60
2022-09-10T20:29:17.834Z,3.13
2022-09-10T20:31:46.213Z,3.20
2022-09-10T20:34:19.723Z,2.90
2022-09-10T20:36:50.252Z,3.37
2022-09-10T20:39:19.774Z,3.23
2022-09-10T20:41:46.997Z,2.67
2022-09-10T20:44:16.508Z,4.00
2022-09-10T20:46:44.498Z,3.47
2022-09-10T20:49:13.810Z,3.20
2022-09-10T20:51:41.364Z,2.90
2022-09-10T20:54:13.907Z,3.53
2022-09-10T20:56:41.424Z,3.27
2022-09-10T20:59:08.295Z,4.03
2022-09-10T21:01:35.223Z,3.83
2022-09-10T21:04:04.103Z,5.20
2022-09-10T21:06:33.258Z,3.93
2022-09-10T21:09:02.063Z,4.40
2022-09-10T21:11:32.418Z,4.20
2022-09-10T21:14:01.904Z,4.97
2022-09-10T21:16:37.981Z,4.63
2022-09-10T21:19:09.396Z,5.47
2022-09-10T21:21:39.330Z,5.17
2022-09-10T21:24:16.640Z,5.60
2022-09-10T21:26:44.396Z,5.50
2022-09-10T21:29:17.768Z,6.10
2022-09-10T21:31:45.563Z,6.50
2022-09-10T21:34:13.679Z,6.70
2022-09-10T21:36:41.882Z,6.57
2022-09-10T21:39:14.368Z,6.77
2022-09-10T21:41:47.609Z,6.23
2022-09-10T21:44:18.394Z,6.67
2022-09-10T21:46:46.677Z,8.43
2022-09-10T21:49:14.321Z,7.87
2022-09-10T21:51:41.912Z,13.37
2022-09-10T21:54:20.435Z,14.97
2022-09-10T21:56:48.688Z,13.67
2022-09-10T21:59:16.121Z,15.47
2022-09-10T22:01:45.410Z,14.70
2022-09-10T22:04:13.727Z,19.07
2022-09-10T22:06:40.858Z,19.97
2022-09-10T22:09:14.859Z,21.33
2022-09-10T22:11:50.157Z,23.40
2022-09-10T22:14:20.883Z,26.13
2022-09-10T22:16:48.251Z,32.40
2022-09-10T22:19:18.895Z,31.13
2022-09-10T22:21:47.080Z,30.23
2022-09-10T22:24:19.226Z,30.90
2022-09-10T22:26:47.341Z,32.60
2022-09-10T22:29:19.997Z,32.40
2022-09-10T22:31:47.918Z,33.30
2022-09-10T22:34:16.536Z,32.20
2022-09-10T22:36:46.137Z,34.40
2022-09-10T22:39:21.288Z,33.50
2022-09-10T22:41:50.078Z,33.97
2022-09-10T22:44:18.044Z,34.53
2022-09-10T22:46:44.967Z,33.50
2022-09-10T22:49:11.900Z,34.00
2022-09-10T22:51:43.336Z,36.30
2022-09-10T22:54:11.299Z,34.27
2022-09-10T22:56:38.372Z,30.37
2022-09-10T22:59:06.571Z,30.57
2022-09-10T23:01:37.558Z,30.40
2022-09-10T23:04:06.327Z,32.17
2022-09-10T23:06:35.479Z,30.40
2022-09-10T23:09:11.088Z,28.73
2022-09-10T23:11:39.196Z,32.80
2022-09-10T23:14:10.785Z,30.50
2022-09-10T23:16:41.901Z,29.60
2022-09-10T23:19:15.653Z,29.50
2022-09-10T23:21:46.483Z,31.00
2022-09-10T23:24:17.166Z,31.60
2022-09-10T23:26:44.782Z,29.77
2022-09-10T23:29:12.523Z,31.30
2022-09-10T23:31:40.935Z,29.60
2022-09-10T23:34:12.995Z,28.83
2022-09-10T23:36:42.822Z,30.47
2022-09-10T23:39:14.823Z,29.97
2022-09-10T23:41:42.202Z,30.37
2022-09-10T23:44:09.855Z,28.00
2022-09-10T23:46:37.567Z,30.00
2022-09-10T23:49:05.523Z,25.50
2022-09-10T23:51:32.383Z,25.70
2022-09-10T23:53:59.569Z,26.87
2022-09-10T23:56:28.331Z,28.23
2022-09-10T23:58:56.416Z,29.67
